Time;durP1;ratioP1;P1;durP2;ratioP2;P2;SDS_P1;SDS_P2;PMS_P1;PMS_P2;Temp;Humidity;BMP_temperature;BMP_pressure;BME280_temperature;BME280_humidity;BME280_pressure;Samples;Min_cycle;Max_cycle;Signal;HPM_P1;HPM_P2
2022/02/12 00:03:53;;;;;;;37.13;17.73;;;;;;;1.65;89.69;100192.28;4391665;80;21319;-90
2022/02/12 00:09:55;;;;;;;37.58;18.87;;;;;;;1.67;89.65;100198.74;4387421;79;20947;-89
2022/02/12 00:15:57;;;;;;;40.67;19.32;;;;;;;1.66;89.71;100205.24;4381835;80;21092;-89
2022/02/12 00:21:59;;;;;;;41.58;18.82;;;;;;;1.64;89.79;100190.12;4383879;80;21037;-91
2022/02/12 00:28:02;;;;;;;38.05;16.27;;;;;;;1.66;89.86;100195.80;4379878;80;21043;-91
2022/02/12 00:34:04;;;;;;;36.25;16.35;;;;;;;1.63;89.62;100205.25;4383351;80;21079;-91
2022/02/12 00:40:06;;;;;;;31.65;15.45;;;;;;;1.62;89.73;100214.45;4389160;80;21522;-90
2022/02/12 00:46:08;;;;;;;33.65;15.20;;;;;;;1.61;89.84;100223.65;4385750;79;21538;-90
2022/02/12 00:52:09;;;;;;;31.73;16.65;;;;;;;1.62;89.73;100238.74;4386155;79;21045;-91
2022/02/12 00:58:11;;;;;;;29.98;15.68;;;;;;;1.60;89.75;100244.97;4391170;79;21046;-93
2022/02/12 01:04:13;;;;;;;28.25;14.53;;;;;;;1.61;89.88;100252.77;4386282;80;21605;-90
2022/02/12 01:10:15;;;;;;;31.17;15.25;;;;;;;1.64;89.96;100251.42;4390959;80;21565;-89
2022/02/12 01:16:16;;;;;;;31.37;15.38;;;;;;;1.62;90.06;100245.49;4395339;80;22189;-89
2022/02/12 01:22:19;;;;;;;29.12;16.23;;;;;;;1.61;90.22;100241.20;4401340;80;21093;-89
2022/02/12 01:28:21;;;;;;;35.50;16.70;;;;;;;1.63;90.24;100245.73;4387249;80;21038;-91
2022/02/12 01:34:23;;;;;;;34.00;17.98;;;;;;;1.62;90.34;100242.80;4399982;80;21022;-91
2022/02/12 01:40:26;;;;;;;32.70;16.65;;;;;;;1.62;90.29;100253.59;4410407;80;21107;-90
2022/02/12 01:46:30;;;;;;;35.73;18.77;;;;;;;1.64;90.42;100275.70;4398636;80;21072;-91
2022/02/12 01:52:32;;;;;;;33.63;16.45;;;;;;;1.61;90.50;100268.19;4388526;80;21089;-90
2022/02/12 01:58:34;;;;;;;28.80;15.25;;;;;;;1.58;90.50;100271.45;4403411;79;21089;-90
2022/02/12 02:04:40;;;;;;;30.57;16.25;;;;;;;1.54;90.47;100267.70;4402512;79;21093;-91
2022/02/12 02:10:44;;;;;;;32.60;18.42;;;;;;;1.48;90.63;100271.01;4397797;80;21022;-90
2022/02/12 02:16:47;;;;;;;28.42;15.80;;;;;;;1.44;90.69;100281.31;4377919;80;21049;-90
2022/02/12 02:22:55;;;;;;;26.82;16.23;;;;;;;1.42;90.86;100282.94;4389106;80;21547;-90
2022/02/12 02:28:56;;;;;;;32.70;15.98;;;;;;;1.44;90.86;100288.05;4381513;80;21029;-90
2022/02/12 02:34:57;;;;;;;28.73;14.33;;;;;;;1.50;90.94;100290.39;4388837;80;21684;-91
2022/02/12 02:41:01;;;;;;;27.30;14.90;;;;;;;1.55;91.02;100301.72;4401826;80;21034;-90
2022/02/12 02:47:33;;;;;;;34.27;17.77;;;;;;;1.56;91.06;100306.02;4391263;80;21058;-91
2022/02/12 02:59:29;;;;;;;34.48;20.12;;;;;;;1.34;91.16;100330.77;4390334;79;21016;-91
2022/02/12 03:05:32;;;;;;;40.08;21.73;;;;;;;1.27;91.62;100345.11;4381430;80;21283;-90
2022/02/12 03:11:34;;;;;;;38.05;20.43;;;;;;;1.23;91.93;100354.05;4385216;80;21101;-89
2022/02/12 03:17:36;;;;;;;38.38;19.73;;;;;;;1.16;92.19;100358.97;4403950;80;21026;-90
2022/02/12 03:23:40;;;;;;;39.63;19.23;;;;;;;1.13;92.23;100368.94;4390694;80;21563;-90
2022/02/12 03:29:42;;;;;;;36.23;20.57;;;;;;;1.11;92.68;100380.00;4392161;79;21084;-91
2022/02/12 03:35:45;;;;;;;38.80;20.90;;;;;;;1.11;93.09;100395.41;4386264;79;21041;-90
2022/02/12 03:41:47;;;;;;;30.75;15.65;;;;;;;1.11;93.19;100406.97;4408218;79;21021;-92
2022/02/12 03:47:50;;;;;;;38.90;19.65;;;;;;;1.13;93.53;100404.00;4396351;80;21593;-90
2022/02/12 03:53:51;;;;;;;27.15;15.50;;;;;;;1.14;93.58;100423.16;4384843;79;22376;-90
2022/02/12 03:59:53;;;;;;;31.57;17.35;;;;;;;1.12;93.36;100446.36;4398132;80;21081;-90
2022/02/12 04:05:54;;;;;;;29.10;16.20;;;;;;;1.07;93.30;100460.41;4409810;78;21001;-90
2022/02/12 04:11:56;;;;;;;19.60;12.78;;;;;;;0.98;92.95;100461.53;4345013;80;21029;-90
2022/02/12 04:17:59;;;;;;;27.50;13.58;;;;;;;0.88;92.57;100473.70;4394944;80;22249;-90
2022/02/12 04:24:01;;;;;;;21.27;12.10;;;;;;;0.79;92.47;100480.75;4411877;80;22033;-90
2022/02/12 04:30:05;;;;;;;15.75;7.35;;;;;;;0.69;91.98;100496.16;4409002;80;21069;-90
2022/02/12 04:36:07;;;;;;;14.85;8.10;;;;;;;0.62;91.35;100504.52;4375967;80;21077;-90
2022/02/12 04:42:11;;;;;;;12.50;6.83;;;;;;;0.57;90.98;100523.39;4191880;80;173747;-90
2022/02/12 04:48:13;;;;;;;14.73;6.50;;;;;;;0.44;90.75;100540.11;4209957;83;21139;-90
2022/02/12 04:54:14;;;;;;;16.52;6.33;;;;;;;0.32;90.22;100544.98;4212516;83;21064;-90
2022/02/12 05:00:17;;;;;;;11.55;7.35;;;;;;;0.26;90.21;100556.02;4209436;83;21050;-90
2022/02/12 05:06:20;;;;;;;12.63;5.97;;;;;;;0.19;89.89;100561.66;4200820;83;22115;-90
2022/02/12 05:12:22;;;;;;;13.53;6.45;;;;;;;0.15;89.85;100564.64;4209001;83;21137;-90
2022/02/12 05:18:23;;;;;;;17.62;7.53;;;;;;;0.06;89.63;100560.88;4271733;81;85511;-90
2022/02/12 05:24:26;;;;;;;14.83;6.70;;;;;;;-0.03;89.60;100581.30;4336352;81;21020;-89
2022/02/12 05:30:27;;;;;;;14.55;6.55;;;;;;;-0.16;89.41;100588.56;4315797;81;21071;-89
2022/02/12 05:36:29;;;;;;;16.02;7.28;;;;;;;-0.27;89.34;100586.37;4313962;81;21082;-89
2022/02/12 05:42:31;;;;;;;14.25;6.67;;;;;;;-0.32;89.46;100597.67;4318474;81;21466;-89
2022/02/12 05:48:34;;;;;;;13.28;6.25;;;;;;;-0.33;89.43;100606.27;4272349;82;21107;-89
2022/02/12 05:54:35;;;;;;;12.85;5.30;;;;;;;-0.29;89.17;100628.09;4175160;82;66408;-89
2022/02/12 06:00:38;;;;;;;13.30;5.75;;;;;;;-0.29;88.84;100634.28;4338201;80;23335;-89
2022/02/12 06:06:39;;;;;;;15.43;6.35;;;;;;;-0.31;88.64;100640.98;4371305;80;21011;-88
2022/02/12 06:12:42;;;;;;;16.42;6.97;;;;;;;-0.33;88.74;100660.64;4258565;80;21085;-89
2022/02/12 06:18:45;;;;;;;16.90;8.28;;;;;;;-0.33;88.74;100660.64;4257561;82;21075;-90
2022/02/12 06:24:46;;;;;;;16.48;7.95;;;;;;;-0.49;88.59;100644.16;4265597;82;21085;-88
2022/02/12 06:30:47;;;;;;;13.00;8.00;;;;;;;-0.41;88.64;100665.97;4262729;82;21040;-88
2022/02/12 06:36:49;;;;;;;19.45;7.67;;;;;;;-0.43;88.89;100682.12;4265977;82;21082;-87
2022/02/12 06:42:51;;;;;;;17.17;8.43;;;;;;;-0.41;88.90;100693.44;4279953;82;21074;-88
2022/02/12 06:48:52;;;;;;;18.98;8.63;;;;;;;-0.41;88.91;100697.47;4248477;82;21051;-88
2022/02/12 06:54:54;;;;;;;20.72;10.05;;;;;;;-0.38;88.99;100707.70;4252460;82;21103;-87
2022/02/12 07:00:55;;;;;;;21.05;10.10;;;;;;;-0.35;89.22;100711.22;4272733;82;21133;-88
2022/02/12 07:06:56;;;;;;;21.57;11.05;;;;;;;-0.24;88.96;100722.30;4273810;82;21015;-87
2022/02/12 07:12:58;;;;;;;23.95;10.75;;;;;;;-0.19;88.77;100731.20;4262396;82;21044;-87
2022/02/12 07:18:59;;;;;;;22.02;10.25;;;;;;;-0.11;88.77;100725.31;4281666;82;21600;-88
2022/02/12 07:25:10;;;;;;;20.08;7.72;;;;;;;-0.11;88.77;100725.31;4283646;82;21022;-89
2022/02/12 07:31:16;;;;;;;20.02;9.15;;;;;;;0.63;89.10;100755.95;4280938;82;21001;-88
2022/02/12 07:37:16;;;;;;;17.55;8.03;;;;;;;0.63;89.10;100755.95;4266023;82;21000;-91
2022/02/12 07:43:18;;;;;;;17.37;8.28;;;;;;;1.19;88.92;100761.67;4272847;82;21337;-87
2022/02/12 07:49:19;;;;;;;16.95;7.22;;;;;;;1.74;88.11;100775.05;4269213;82;21031;-87
2022/02/12 07:55:21;;;;;;;16.05;7.67;;;;;;;1.91;86.95;100772.05;4255500;82;21104;-87
2022/02/12 08:01:22;;;;;;;14.10;7.55;;;;;;;1.69;87.24;100784.53;4261085;82;21617;-89
2022/02/12 08:07:30;;;;;;;17.70;6.62;;;;;;;1.66;86.49;100786.97;4251310;82;21078;-88
2022/02/12 08:13:31;;;;;;;15.05;5.90;;;;;;;1.77;86.75;100800.71;4266555;82;21011;-89
2022/02/12 08:19:32;;;;;;;14.33;5.70;;;;;;;1.66;85.75;100818.02;4224773;82;21051;-89
2022/02/12 08:25:33;;;;;;;14.93;6.00;;;;;;;1.67;85.65;100825.84;4267087;82;21039;-88
2022/02/12 08:31:35;;;;;;;10.00;5.05;;;;;;;2.65;86.27;100834.41;4266056;82;21036;-89
2022/02/12 08:37:39;;;;;;;13.53;6.35;;;;;;;3.28;84.97;100841.31;4240327;82;21098;-89
2022/02/12 08:43:41;;;;;;;14.63;6.78;;;;;;;3.66;84.95;100854.81;4228400;82;21237;-89
2022/02/12 08:49:43;;;;;;;11.30;4.75;;;;;;;4.75;84.31;100855.20;4206677;82;21067;-89
2022/02/12 08:55:46;;;;;;;10.23;5.70;;;;;;;4.41;84.04;100863.52;4395725;80;21051;-90
2022/02/12 09:01:47;;;;;;;13.85;6.15;;;;;;;3.71;83.37;100870.21;4192915;83;21551;-88
2022/02/12 09:07:48;;;;;;;10.10;4.80;;;;;;;3.76;82.34;100876.38;4247403;82;21701;-90
2022/02/12 09:13:52;;;;;;;9.75;4.15;;;;;;;4.21;82.66;100873.78;4239821;82;22187;-88
2022/02/12 09:19:58;;;;;;;9.00;3.90;;;;;;;5.50;82.51;100875.00;4231391;83;21608;-90
2022/02/12 09:25:57;;;;;;;10.90;4.72;;;;;;;6.35;80.73;100883.86;4236692;83;21058;-89
2022/02/12 09:31:59;;;;;;;12.13;4.97;;;;;;;6.81;79.67;100885.66;4354059;80;21098;-89
2022/02/12 09:38:00;;;;;;;9.45;4.97;;;;;;;6.55;78.53;100897.60;4188099;84;21059;-90
2022/02/12 09:44:01;;;;;;;11.73;4.72;;;;;;;6.08;78.50;100902.84;4247824;82;21303;-89
2022/02/12 09:50:05;;;;;;;8.40;4.20;;;;;;;5.85;77.29;100909.24;4251816;83;21579;-90
2022/02/12 09:56:07;;;;;;;12.15;4.60;;;;;;;6.71;78.06;100907.63;4230214;83;21052;-89
2022/02/12 10:02:09;;;;;;;11.75;4.95;;;;;;;8.07;77.35;100895.72;4311469;80;21073;-90
2022/02/12 10:08:15;;;;;;;7.92;4.15;;;;;;;8.15;74.91;100896.33;4393669;80;21066;-90
2022/02/12 10:14:23;;;;;;;9.68;4.67;;;;;;;8.51;74.79;100891.55;4354923;80;21041;-90
2022/02/12 10:20:30;;;;;;;12.47;4.80;;;;;;;8.67;74.70;100893.55;4436577;79;20952;-90
2022/02/12 10:26:36;;;;;;;29.00;15.50;;;;;;;9.24;72.97;100886.91;4431256;79;21057;-91
2022/02/12 10:32:36;;;;;;;12.13;6.92;;;;;;;8.34;72.35;100890.12;4412159;79;21538;-89
2022/02/12 10:38:47;;;;;;;9.18;4.28;;;;;;;6.90;66.27;100881.91;4424255;79;20994;-90
2022/02/12 10:44:52;;;;;;;9.65;4.10;;;;;;;7.53;69.46;100878.52;4421833;79;21046;-90
2022/02/12 10:51:00;;;;;;;8.18;3.52;;;;;;;8.53;68.74;100872.39;4433560;79;21062;-90
2022/02/12 10:57:02;;;;;;;7.15;3.77;;;;;;;9.25;64.85;100876.78;4418804;79;21002;-91
2022/02/12 11:03:08;;;;;;;7.30;3.50;;;;;;;8.86;66.79;100874.16;4420328;79;20975;-92
2022/02/12 11:09:10;;;;;;;6.30;3.55;;;;;;;8.86;67.22;100870.87;4423802;79;21720;-92
2022/02/12 11:15:12;;;;;;;8.10;3.77;;;;;;;8.87;66.14;100873.03;4396301;79;21034;-91
2022/02/12 11:21:13;;;;;;;8.08;3.60;;;;;;;8.83;65.89;100859.20;4366330;80;20988;-91
2022/02/12 11:27:24;;;;;;;9.40;3.40;;;;;;;8.63;64.66;100850.24;4411802;80;21026;-91
2022/02/12 11:33:26;;;;;;;7.50;3.60;;;;;;;8.43;63.00;100845.38;4387618;80;21101;-92
2022/02/12 11:39:28;;;;;;;5.97;3.25;;;;;;;8.13;62.06;100844.03;4403736;80;21061;-91
2022/02/12 11:45:49;;;;;;;5.22;2.85;;;;;;;7.85;61.38;100848.84;4402210;80;21093;-91
2022/02/12 11:51:48;;;;;;;6.40;3.45;;;;;;;7.63;61.26;100846.95;4412838;79;22096;-91
2022/02/12 11:57:50;;;;;;;5.62;2.75;;;;;;;7.12;60.41;100839.75;4396709;80;21034;-91
2022/02/12 12:04:14;;;;;;;9.18;4.10;;;;;;;7.03;58.36;100842.94;4383320;80;21085;-92
2022/02/12 12:10:16;;;;;;;6.25;2.98;;;;;;;6.53;59.15;100826.92;4411640;79;21045;-90
2022/02/12 12:16:22;;;;;;;5.75;3.90;;;;;;;6.16;58.86;100831.46;4416397;79;21171;-91
2022/02/12 12:22:22;;;;;;;7.40;3.30;;;;;;;6.09;58.26;100832.97;4401006;79;21057;-91
2022/02/12 12:28:40;;;;;;;8.63;3.60;;;;;;;5.90;57.60;100826.23;4406801;80;22010;-91
2022/02/12 12:34:52;;;;;;;8.70;3.98;;;;;;;5.56;57.22;100817.58;4371759;79;21066;-90
2022/02/12 12:40:54;;;;;;;9.88;3.30;;;;;;;5.16;54.51;100802.50;4424459;80;21593;-91
2022/02/12 12:46:58;;;;;;;9.10;3.40;;;;;;;4.97;56.13;100796.28;4416159;79;21022;-91
2022/02/12 12:53:08;;;;;;;8.53;4.30;;;;;;;5.08;56.50;100790.95;4398524;79;21022;-90
2022/02/12 12:59:10;;;;;;;7.40;4.25;;;;;;;5.19;54.02;100774.76;4408774;80;21523;-92
2022/02/12 13:05:12;;;;;;;8.73;3.80;;;;;;;4.97;55.29;100754.21;4372142;79;21091;-91
2022/02/12 13:11:32;;;;;;;9.70;4.30;;;;;;;4.77;54.99;100756.16;4333686;80;21046;-90
2022/02/12 13:17:49;;;;;;;7.75;4.15;;;;;;;4.44;52.66;100758.53;4362168;80;21105;-91
2022/02/12 13:23:50;;;;;;;10.32;4.22;;;;;;;4.56;53.43;100749.41;4241686;82;21622;-91
2022/02/12 13:30:05;;;;;;;10.13;4.85;;;;;;;4.62;53.97;100750.94;4217921;83;21111;-91
2022/02/12 13:36:10;;;;;;;5.03;2.47;;;;;;;4.65;54.25;100744.92;4209571;83;21931;-91
2022/02/12 13:42:12;;;;;;;4.87;2.37;;;;;;;4.73;53.37;100746.98;4236908;83;21127;-91
2022/02/12 13:48:21;;;;;;;6.08;2.42;;;;;;;4.83;53.31;100746.84;4219224;83;21014;-91
2022/02/12 13:54:24;;;;;;;4.58;2.25;;;;;;;4.78;50.28;100748.80;4224068;83;21072;-91
2022/02/12 14:00:25;;;;;;;6.58;2.45;;;;;;;4.61;48.32;100749.88;4238860;81;21090;-91
2022/02/12 14:06:27;;;;;;;4.65;2.60;;;;;;;4.29;47.77;100747.09;4360951;80;21086;-91
2022/02/12 14:12:28;;;;;;;7.08;2.40;;;;;;;4.18;50.61;100730.70;4363791;80;21066;-91
2022/02/12 14:18:29;;;;;;;4.78;2.55;;;;;;;4.10;51.05;100734.83;4351094;80;21653;-89
2022/02/12 14:24:32;;;;;;;7.40;3.12;;;;;;;4.04;51.19;100732.50;4341740;80;21030;-91
2022/02/12 14:30:33;;;;;;;5.58;2.87;;;;;;;4.00;50.77;100734.98;4362618;80;21112;-90
2022/02/12 14:36:35;;;;;;;11.53;4.42;;;;;;;3.89;51.06;100728.06;4333754;80;21486;-91
2022/02/12 14:42:37;;;;;;;6.70;3.12;;;;;;;3.78;50.83;100742.00;4348124;80;21698;-90
2022/02/12 14:48:39;;;;;;;5.33;2.83;;;;;;;3.68;50.18;100729.95;4343861;81;21050;-90
2022/02/12 14:54:40;;;;;;;8.48;3.42;;;;;;;3.48;50.55;100731.52;4313386;82;22327;-90
2022/02/12 15:00:41;;;;;;;7.20;3.15;;;;;;;3.38;49.89;100716.72;4338232;81;21096;-90
2022/02/12 15:06:43;;;;;;;6.17;3.40;;;;;;;3.37;50.11;100713.76;4354673;81;21106;-90
2022/02/12 15:12:45;;;;;;;12.60;4.15;;;;;;;3.37;50.32;100711.05;4335118;81;21028;-90
2022/02/12 15:18:46;;;;;;;9.03;4.22;;;;;;;3.27;50.28;100690.84;4336574;81;21618;-89
2022/02/12 15:24:48;;;;;;;12.50;5.20;;;;;;;3.22;50.57;100676.82;4349903;81;21070;-90
2022/02/12 15:30:50;;;;;;;11.60;4.75;;;;;;;2.99;50.81;100673.53;4362662;81;22114;-90
2022/02/12 15:36:51;;;;;;;7.97;4.40;;;;;;;2.80;50.90;100665.84;4364696;81;21042;-91
2022/02/12 15:42:52;;;;;;;13.15;5.15;;;;;;;2.63;50.98;100666.23;4252125;83;21067;-90
2022/02/12 15:48:54;;;;;;;24.92;10.58;;;;;;;2.47;51.27;100658.54;4230352;83;21206;-90
2022/02/12 15:54:56;;;;;;;26.77;12.47;;;;;;;2.30;51.33;100657.55;4216063;83;21077;-90
2022/02/12 16:00:57;;;;;;;23.52;11.25;;;;;;;2.05;51.04;100656.36;4236226;83;21062;-89
2022/02/12 16:06:58;;;;;;;18.92;7.10;;;;;;;1.81;51.58;100643.81;4220110;83;22106;-90
2022/02/12 16:13:03;;;;;;;24.43;10.50;;;;;;;1.50;52.04;100641.23;4245145;83;21058;-90
2022/02/12 16:19:05;;;;;;;21.55;10.03;;;;;;;1.16;52.15;100621.95;4224560;83;21562;-91
2022/02/12 16:25:07;;;;;;;34.67;15.80;;;;;;;0.86;52.38;100630.88;4236752;83;21066;-90
2022/02/12 16:31:09;;;;;;;45.40;21.25;;;;;;;0.66;53.40;100606.64;4236720;83;21653;-89
2022/02/12 16:37:10;;;;;;;50.03;23.85;;;;;;;0.66;53.40;100606.64;4235267;83;21075;-89
2022/02/12 16:43:11;;;;;;;56.90;26.42;;;;;;;0.62;53.42;100609.63;4236397;83;22242;-89
2022/02/12 16:49:13;;;;;;;67.15;29.30;;;;;;;0.53;53.48;100607.74;4227336;83;21050;-88
2022/02/12 16:55:14;;;;;;;57.10;27.25;;;;;;;0.46;53.73;100605.84;4226171;83;21575;-89
2022/02/12 17:01:15;;;;;;;71.25;32.45;;;;;;;0.39;53.87;100616.09;4233597;81;21026;-89
2022/02/12 17:07:16;;;;;;;88.72;40.23;;;;;;;0.19;54.22;100590.50;4243245;82;21018;-88
2022/02/12 17:13:18;;;;;;;89.83;39.03;;;;;;;0.18;54.12;100598.30;4239074;82;21011;-88
2022/02/12 17:19:19;;;;;;;89.55;35.65;;;;;;;0.10;54.56;100600.16;4228532;82;21095;-87
2022/02/12 17:25:58;;;;;;;82.80;32.88;;;;;;;-0.08;54.80;100617.09;4250961;82;21090;-88
2022/02/12 17:32:06;;;;;;;69.17;30.12;;;;;;;-0.36;55.14;100612.74;4240643;82;21573;-88
2022/02/12 17:38:07;;;;;;;131.40;51.23;;;;;;;-0.60;55.75;100588.17;4243234;82;21077;-88
2022/02/12 17:44:10;;;;;;;79.82;36.28;;;;;;;-0.60;55.75;100588.17;4256936;82;21420;-87
2022/02/12 17:50:25;;;;;;;88.33;37.17;;;;;;;-0.64;55.81;100617.20;4257641;82;21018;-88
2022/02/12 17:56:28;;;;;;;76.80;33.18;;;;;;;-0.77;56.20;100606.92;4259730;82;21075;-87
2022/02/12 18:02:29;;;;;;;84.60;35.20;;;;;;;-0.96;56.47;100611.12;4179763;83;21648;-88
2022/02/12 18:15:05;;;;;;;90.93;40.10;;;;;;;-1.25;57.18;100584.34;4226098;83;21127;-87
2022/02/12 18:21:07;;;;;;;147.37;58.70;;;;;;;-1.44;57.47;100595.23;4344288;80;21054;-87
2022/02/12 18:27:09;;;;;;;152.80;57.03;;;;;;;-1.65;57.85;100592.39;4346867;81;21808;-88
2022/02/12 18:33:11;;;;;;;142.10;54.00;;;;;;;-1.88;58.51;100590.03;4400836;80;21066;-87
2022/02/12 18:39:12;;;;;;;147.10;52.73;;;;;;;-2.02;59.20;100579.98;4405012;80;21882;-88
2022/02/12 18:45:14;;;;;;;116.43;46.23;;;;;;;-2.12;59.38;100571.83;4412683;79;20979;-87
2022/02/12 18:51:15;;;;;;;112.23;49.17;;;;;;;-2.13;59.81;100576.37;4417844;80;21069;-87
2022/02/12 18:57:17;;;;;;;128.87;53.40;;;;;;;-2.19;60.85;100580.08;4409116;80;21054;-87
2022/02/12 19:03:18;;;;;;;154.77;71.53;;;;;;;-2.19;61.96;100583.28;4268419;80;10000247;-87
2022/02/12 19:09:19;;;;;;;139.13;60.20;;;;;;;-2.30;61.23;100574.33;4383950;80;21054;-87
2022/02/12 19:15:21;;;;;;;146.27;59.40;;;;;;;-2.45;61.44;100568.82;4249846;82;21605;-87
2022/02/12 19:21:22;;;;;;;144.83;59.33;;;;;;;-2.61;61.70;100564.87;4249869;82;21502;-87
2022/02/12 19:27:24;;;;;;;134.30;57.40;;;;;;;-2.74;62.55;100559.91;4183021;83;21007;-87
2022/02/12 19:33:25;;;;;;;112.17;51.03;;;;;;;-2.90;62.58;100554.08;4218213;83;21063;-88
2022/02/12 19:39:32;;;;;;;125.97;54.50;;;;;;;-3.02;63.75;100558.76;4250229;82;20987;-87
2022/02/12 19:45:30;;;;;;;153.97;63.23;;;;;;;-3.03;64.61;100550.42;4282088;82;21078;-87
2022/02/12 19:51:31;;;;;;;143.57;59.73;;;;;;;-2.98;64.89;100550.49;4267971;82;21857;-88
2022/02/12 19:57:33;;;;;;;135.13;54.27;;;;;;;-3.02;63.95;100534.64;4215806;82;22198;-88
2022/02/12 20:03:34;;;;;;;125.13;52.93;;;;;;;-3.07;64.80;100531.91;4229589;82;21067;-87
2022/02/12 20:09:36;;;;;;;139.20;56.20;;;;;;;-3.11;66.03;100530.23;4229378;83;21027;-87
2022/02/12 20:15:38;;;;;;;135.73;55.77;;;;;;;-3.15;65.94;100528.31;4242202;83;21043;-90
2022/02/12 20:21:40;;;;;;;132.97;55.30;;;;;;;-3.19;65.74;100523.97;4227035;83;21112;-88
2022/02/12 20:27:41;;;;;;;130.83;55.30;;;;;;;-3.24;65.74;100505.97;4233410;83;21639;-86
2022/02/12 20:33:43;;;;;;;127.07;52.07;;;;;;;-3.41;65.36;100504.39;4234122;83;21151;-87
2022/02/12 20:39:44;;;;;;;147.73;59.73;;;;;;;-3.60;65.48;100497.70;4246531;83;21058;-87
2022/02/12 20:45:45;;;;;;;149.67;61.07;;;;;;;-3.62;65.95;100485.91;4252964;83;21559;-87
2022/02/12 20:51:50;;;;;;;146.13;62.43;;;;;;;-3.65;65.96;100484.27;4226670;83;21062;-86
2022/02/12 20:57:52;;;;;;;199.10;79.53;;;;;;;-3.67;67.15;100483.70;4242496;83;21036;-87
2022/02/12 21:03:54;;;;;;;197.00;72.60;;;;;;;-3.71;65.82;100483.38;4267764;82;21069;-87
2022/02/12 21:09:56;;;;;;;213.73;76.10;;;;;;;-3.72;67.20;100469.72;4387150;80;21000;-87
2022/02/12 21:15:57;;;;;;;157.40;56.87;;;;;;;-3.70;67.39;100468.95;4410150;80;21569;-87
2022/02/12 21:21:59;;;;;;;121.87;47.07;;;;;;;-3.78;67.99;100460.01;4412566;80;21042;-87
2022/02/12 21:28:01;;;;;;;158.63;59.67;;;;;;;-3.76;68.84;100464.56;4400962;80;21042;-87
2022/02/12 21:34:02;;;;;;;140.83;54.27;;;;;;;-3.75;69.27;100462.19;4409598;80;21495;-87
2022/02/12 21:40:24;;;;;;;144.50;59.63;;;;;;;-3.84;67.60;100454.30;4410020;80;21542;-87
2022/02/12 21:46:26;;;;;;;157.07;62.47;;;;;;;-3.87;69.34;100449.97;4411179;80;21071;-87
2022/02/12 21:52:28;;;;;;;145.67;57.67;;;;;;;-3.94;69.47;100450.65;4423108;80;21038;-87
2022/02/12 21:58:30;;;;;;;158.73;65.20;;;;;;;-4.06;69.69;100440.58;4406180;80;21018;-86
2022/02/12 22:04:34;;;;;;;134.30;54.87;;;;;;;-4.10;70.17;100427.44;4408213;80;21108;-86
2022/02/12 22:11:04;;;;;;;163.93;67.83;;;;;;;-4.22;69.93;100430.70;4413720;79;21008;-86
2022/02/12 22:17:06;;;;;;;196.03;78.73;;;;;;;-4.24;70.10;100424.78;4433701;80;21030;-86
2022/02/12 22:23:07;;;;;;;174.00;70.57;;;;;;;-4.45;70.07;100422.34;4423797;80;22047;-86
2022/02/12 22:29:09;;;;;;;181.03;71.30;;;;;;;-4.50;71.14;100416.08;4439634;80;21035;-85
2022/02/12 22:35:10;;;;;;;199.20;77.57;;;;;;;-4.36;71.99;100406.17;4407126;80;21006;-85
2022/02/12 22:41:12;;;;;;;197.00;79.03;;;;;;;-4.49;70.88;100410.50;4357852;81;21046;-85
2022/02/12 22:47:14;;;;;;;197.27;77.70;;;;;;;-4.50;71.08;100409.41;4294794;82;21066;-85
2022/02/12 22:53:16;;;;;;;220.17;86.53;;;;;;;-4.62;71.11;100400.14;4339108;81;21548;-84
2022/02/12 22:59:17;;;;;;;207.67;83.00;;;;;;;-4.74;70.90;100398.05;4323489;81;20969;-84
2022/02/12 23:05:19;;;;;;;177.30;69.80;;;;;;;-4.90;71.26;100402.84;4330246;80;20955;-84
2022/02/12 23:11:28;;;;;;;166.23;67.97;;;;;;;-4.98;71.83;100406.72;4371374;80;21003;-84
2022/02/12 23:17:30;;;;;;;181.27;71.23;;;;;;;-5.08;71.90;100407.06;4443426;79;21022;-83
2022/02/12 23:23:33;;;;;;;188.17;70.23;;;;;;;-5.12;72.20;100389.37;4427534;79;21421;-83
2022/02/12 23:29:34;;;;;;;186.50;76.57;;;;;;;-5.20;71.40;100400.43;4432881;79;21049;-82
2022/02/12 23:35:36;;;;;;;186.70;68.97;;;;;;;-5.23;72.55;100388.89;4468580;79;21110;-83
2022/02/12 23:41:37;;;;;;;212.23;80.60;;;;;;;-5.18;73.16;100394.34;4438375;79;21483;-84
2022/02/12 23:47:44;;;;;;;191.20;75.87;;;;;;;-5.27;72.67;100380.27;4451147;79;21014;-83
2022/02/12 23:53:53;;;;;;;217.97;81.80;;;;;;;-5.36;73.20;100375.86;4427365;79;21009;-82
2022/02/12 23:59:54;;;;;;;170.60;68.70;;;;;;;-5.50;72.92;100373.70;4438845;79;21028;-82
